sensor_id;sensor_type;location;lat;lon;timestamp;P1;durP1;ratioP1;P2;durP2;ratioP2
65045;SDS011;54657;52.022;5.534;2024-02-28T00:00:54;30.92;;;15.60;;
65045;SDS011;54657;52.022;5.534;2024-02-28T00:03:20;30.02;;;15.52;;
65045;SDS011;54657;52.022;5.534;2024-02-28T00:05:46;35.92;;;17.60;;
65045;SDS011;54657;52.022;5.534;2024-02-28T00:08:13;32.67;;;16.98;;
65045;SDS011;54657;52.022;5.534;2024-02-28T00:10:38;34.72;;;16.15;;
65045;SDS011;54657;52.022;5.534;2024-02-28T00:13:04;32.30;;;16.73;;
65045;SDS011;54657;52.022;5.534;2024-02-28T00:15:29;35.25;;;16.40;;
65045;SDS011;54657;52.022;5.534;2024-02-28T00:17:55;32.58;;;16.00;;
65045;SDS011;54657;52.022;5.534;2024-02-28T00:20:20;37.20;;;17.33;;
65045;SDS011;54657;52.022;5.534;2024-02-28T00:22:46;33.72;;;17.55;;
65045;SDS011;54657;52.022;5.534;2024-02-28T00:25:12;32.15;;;16.17;;
65045;SDS011;54657;52.022;5.534;2024-02-28T00:27:38;32.15;;;16.73;;
65045;SDS011;54657;52.022;5.534;2024-02-28T00:30:04;38.17;;;17.40;;
65045;SDS011;54657;52.022;5.534;2024-02-28T00:32:33;35.60;;;17.40;;
65045;SDS011;54657;52.022;5.534;2024-02-28T00:34:59;28.33;;;15.60;;
65045;SDS011;54657;52.022;5.534;2024-02-28T00:37:24;29.83;;;16.02;;
65045;SDS011;54657;52.022;5.534;2024-02-28T00:39:50;30.92;;;16.70;;
65045;SDS011;54657;52.022;5.534;2024-02-28T00:42:16;33.65;;;16.88;;
65045;SDS011;54657;52.022;5.534;2024-02-28T00:44:41;29.83;;;15.88;;
65045;SDS011;54657;52.022;5.534;2024-02-28T00:47:07;33.35;;;16.10;;
65045;SDS011;54657;52.022;5.534;2024-02-28T00:49:33;31.75;;;17.20;;
65045;SDS011;54657;52.022;5.534;2024-02-28T00:52:00;32.42;;;16.33;;
65045;SDS011;54657;52.022;5.534;2024-02-28T00:54:25;28.50;;;15.85;;
65045;SDS011;54657;52.022;5.534;2024-02-28T00:56:51;28.85;;;15.93;;
65045;SDS011;54657;52.022;5.534;2024-02-28T00:59:16;29.65;;;15.70;;
65045;SDS011;54657;52.022;5.534;2024-02-28T01:01:42;30.38;;;15.57;;
65045;SDS011;54657;52.022;5.534;2024-02-28T01:04:08;30.70;;;16.48;;
65045;SDS011;54657;52.022;5.534;2024-02-28T01:06:33;33.22;;;16.35;;
65045;SDS011;54657;52.022;5.534;2024-02-28T01:08:59;28.17;;;14.90;;
65045;SDS011;54657;52.022;5.534;2024-02-28T01:11:26;30.75;;;16.23;;
65045;SDS011;54657;52.022;5.534;2024-02-28T01:13:51;32.58;;;16.52;;
65045;SDS011;54657;52.022;5.534;2024-02-28T01:16:17;29.13;;;15.48;;
65045;SDS011;54657;52.022;5.534;2024-02-28T01:18:42;31.95;;;15.65;;
65045;SDS011;54657;52.022;5.534;2024-02-28T01:21:08;29.02;;;15.68;;
65045;SDS011;54657;52.022;5.534;2024-02-28T01:23:33;28.45;;;16.27;;
65045;SDS011;54657;52.022;5.534;2024-02-28T01:25:59;28.08;;;15.25;;
65045;SDS011;54657;52.022;5.534;2024-02-28T01:28:28;25.95;;;14.70;;
65045;SDS011;54657;52.022;5.534;2024-02-28T01:30:53;28.70;;;15.65;;
65045;SDS011;54657;52.022;5.534;2024-02-28T01:33:19;27.95;;;15.40;;
65045;SDS011;54657;52.022;5.534;2024-02-28T01:35:44;27.38;;;14.70;;
65045;SDS011;54657;52.022;5.534;2024-02-28T01:38:10;31.95;;;16.20;;
65045;SDS011;54657;52.022;5.534;2024-02-28T01:40:35;26.50;;;14.52;;
65045;SDS011;54657;52.022;5.534;2024-02-28T01:43:07;27.45;;;14.68;;
65045;SDS011;54657;52.022;5.534;2024-02-28T01:45:33;26.25;;;14.60;;
65045;SDS011;54657;52.022;5.534;2024-02-28T01:47:58;26.88;;;14.68;;
65045;SDS011;54657;52.022;5.534;2024-02-28T02:17:48;26.45;;;14.60;;
65045;SDS011;54657;52.022;5.534;2024-02-28T02:26:47;29.20;;;12.18;;
65045;SDS011;54657;52.022;5.534;2024-02-28T02:29:12;22.60;;;11.10;;
65045;SDS011;54657;52.022;5.534;2024-02-28T02:31:38;21.30;;;12.30;;
65045;SDS011;54657;52.022;5.534;2024-02-28T02:34:07;21.83;;;12.60;;
65045;SDS011;54657;52.022;5.534;2024-02-28T02:36:32;28.55;;;11.70;;
65045;SDS011;54657;52.022;5.534;2024-02-28T02:38:58;22.30;;;11.30;;
65045;SDS011;54657;52.022;5.534;2024-02-28T02:41:24;24.02;;;12.32;;
65045;SDS011;54657;52.022;5.534;2024-02-28T02:43:49;20.50;;;12.50;;
65045;SDS011;54657;52.022;5.534;2024-02-28T02:46:15;23.27;;;12.65;;
65045;SDS011;54657;52.022;5.534;2024-02-28T02:48:40;18.27;;;11.93;;
65045;SDS011;54657;52.022;5.534;2024-02-28T02:51:06;19.42;;;12.43;;
65045;SDS011;54657;52.022;5.534;2024-02-28T02:53:31;19.25;;;11.88;;
65045;SDS011;54657;52.022;5.534;2024-02-28T02:55:57;17.50;;;11.77;;
65045;SDS011;54657;52.022;5.534;2024-02-28T02:58:22;20.55;;;12.48;;
65045;SDS011;54657;52.022;5.534;2024-02-28T03:00:48;18.90;;;12.43;;
65045;SDS011;54657;52.022;5.534;2024-02-28T03:03:14;21.08;;;12.32;;
65045;SDS011;54657;52.022;5.534;2024-02-28T03:05:40;17.80;;;11.25;;
65045;SDS011;54657;52.022;5.534;2024-02-28T03:08:05;19.88;;;11.70;;
65045;SDS011;54657;52.022;5.534;2024-02-28T03:10:31;17.77;;;11.32;;
65045;SDS011;54657;52.022;5.534;2024-02-28T03:12:57;18.83;;;12.15;;
65045;SDS011;54657;52.022;5.534;2024-02-28T03:15:22;21.50;;;12.15;;
65045;SDS011;54657;52.022;5.534;2024-02-28T03:17:48;19.35;;;12.02;;
65045;SDS011;54657;52.022;5.534;2024-02-28T03:20:13;20.13;;;12.35;;
65045;SDS011;54657;52.022;5.534;2024-02-28T03:22:39;20.73;;;12.07;;
65045;SDS011;54657;52.022;5.534;2024-02-28T03:25:05;17.58;;;11.63;;
65045;SDS011;54657;52.022;5.534;2024-02-28T03:27:31;19.10;;;12.13;;
65045;SDS011;54657;52.022;5.534;2024-02-28T03:29:57;20.00;;;11.35;;
65045;SDS011;54657;52.022;5.534;2024-02-28T03:32:22;18.60;;;10.85;;
65045;SDS011;54657;52.022;5.534;2024-02-28T03:34:48;16.73;;;10.98;;
65045;SDS011;54657;52.022;5.534;2024-02-28T03:37:14;17.73;;;11.55;;
65045;SDS011;54657;52.022;5.534;2024-02-28T03:39:39;16.48;;;10.73;;
65045;SDS011;54657;52.022;5.534;2024-02-28T03:42:05;17.98;;;11.82;;
65045;SDS011;54657;52.022;5.534;2024-02-28T03:44:31;14.35;;;10.13;;
65045;SDS011;54657;52.022;5.534;2024-02-28T03:46:56;18.35;;;10.63;;
65045;SDS011;54657;52.022;5.534;2024-02-28T03:49:22;17.42;;;10.73;;
65045;SDS011;54657;52.022;5.534;2024-02-28T03:51:47;16.77;;;9.98;;
65045;SDS011;54657;52.022;5.534;2024-02-28T03:54:13;17.35;;;11.10;;
65045;SDS011;54657;52.022;5.534;2024-02-28T03:56:38;16.92;;;10.73;;
65045;SDS011;54657;52.022;5.534;2024-02-28T03:59:04;14.98;;;10.48;;
65045;SDS011;54657;52.022;5.534;2024-02-28T04:01:30;15.30;;;10.23;;
65045;SDS011;54657;52.022;5.534;2024-02-28T04:03:55;14.70;;;9.82;;
65045;SDS011;54657;52.022;5.534;2024-02-28T04:06:21;15.85;;;10.65;;
65045;SDS011;54657;52.022;5.534;2024-02-28T04:08:47;16.95;;;10.95;;
65045;SDS011;54657;52.022;5.534;2024-02-28T04:11:12;14.00;;;9.77;;
65045;SDS011;54657;52.022;5.534;2024-02-28T04:13:38;13.43;;;9.82;;
65045;SDS011;54657;52.022;5.534;2024-02-28T04:16:04;12.88;;;9.75;;
65045;SDS011;54657;52.022;5.534;2024-02-28T04:18:30;14.02;;;9.98;;
65045;SDS011;54657;52.022;5.534;2024-02-28T04:20:56;15.40;;;10.35;;
65045;SDS011;54657;52.022;5.534;2024-02-28T04:23:21;13.27;;;9.70;;
65045;SDS011;54657;52.022;5.534;2024-02-28T04:25:47;14.70;;;9.85;;
65045;SDS011;54657;52.022;5.534;2024-02-28T04:28:12;14.10;;;9.60;;
65045;SDS011;54657;52.022;5.534;2024-02-28T04:30:38;12.10;;;8.90;;
65045;SDS011;54657;52.022;5.534;2024-02-28T04:33:04;13.43;;;9.45;;
65045;SDS011;54657;52.022;5.534;2024-02-28T04:35:29;12.20;;;8.77;;
65045;SDS011;54657;52.022;5.534;2024-02-28T04:37:55;12.95;;;9.13;;
65045;SDS011;54657;52.022;5.534;2024-02-28T04:40:23;13.35;;;9.65;;
65045;SDS011;54657;52.022;5.534;2024-02-28T04:42:49;12.10;;;9.32;;
65045;SDS011;54657;52.022;5.534;2024-02-28T04:45:14;13.75;;;9.93;;
65045;SDS011;54657;52.022;5.534;2024-02-28T04:47:40;14.98;;;9.27;;
65045;SDS011;54657;52.022;5.534;2024-02-28T04:50:06;12.20;;;9.23;;
65045;SDS011;54657;52.022;5.534;2024-02-28T04:52:32;13.88;;;9.82;;
65045;SDS011;54657;52.022;5.534;2024-02-28T04:54:58;11.48;;;9.23;;
65045;SDS011;54657;52.022;5.534;2024-02-28T04:57:24;15.70;;;9.85;;
65045;SDS011;54657;52.022;5.534;2024-02-28T04:59:49;13.60;;;9.60;;
65045;SDS011;54657;52.022;5.534;2024-02-28T05:02:15;13.02;;;9.45;;
65045;SDS011;54657;52.022;5.534;2024-02-28T05:04:41;13.32;;;9.15;;
65045;SDS011;54657;52.022;5.534;2024-02-28T05:07:07;11.90;;;9.18;;
65045;SDS011;54657;52.022;5.534;2024-02-28T05:09:33;14.68;;;9.10;;
65045;SDS011;54657;52.022;5.534;2024-02-28T05:11:59;13.43;;;8.88;;
65045;SDS011;54657;52.022;5.534;2024-02-28T05:14:24;12.25;;;8.27;;
65045;SDS011;54657;52.022;5.534;2024-02-28T05:16:50;11.98;;;8.80;;
65045;SDS011;54657;52.022;5.534;2024-02-28T05:19:15;12.63;;;9.20;;
65045;SDS011;54657;52.022;5.534;2024-02-28T05:21:44;12.05;;;9.48;;
65045;SDS011;54657;52.022;5.534;2024-02-28T05:24:10;13.85;;;9.27;;
65045;SDS011;54657;52.022;5.534;2024-02-28T05:26:36;14.18;;;9.88;;
65045;SDS011;54657;52.022;5.534;2024-02-28T05:29:03;10.85;;;8.73;;
65045;SDS011;54657;52.022;5.534;2024-02-28T05:31:30;12.68;;;9.43;;
65045;SDS011;54657;52.022;5.534;2024-02-28T05:33:59;14.20;;;9.88;;
65045;SDS011;54657;52.022;5.534;2024-02-28T05:36:26;12.77;;;9.88;;
65045;SDS011;54657;52.022;5.534;2024-02-28T05:38:53;12.75;;;9.45;;
65045;SDS011;54657;52.022;5.534;2024-02-28T05:41:19;11.93;;;8.80;;
65045;SDS011;54657;52.022;5.534;2024-02-28T05:43:46;15.15;;;10.20;;
65045;SDS011;54657;52.022;5.534;2024-02-28T05:46:12;13.98;;;9.75;;
65045;SDS011;54657;52.022;5.534;2024-02-28T05:48:40;15.00;;;11.13;;
65045;SDS011;54657;52.022;5.534;2024-02-28T05:51:06;13.52;;;9.75;;
65045;SDS011;54657;52.022;5.534;2024-02-28T05:53:31;12.35;;;9.30;;
65045;SDS011;54657;52.022;5.534;2024-02-28T05:56:00;13.35;;;10.23;;
65045;SDS011;54657;52.022;5.534;2024-02-28T05:58:26;12.85;;;9.02;;
65045;SDS011;54657;52.022;5.534;2024-02-28T06:00:52;11.43;;;9.15;;
65045;SDS011;54657;52.022;5.534;2024-02-28T06:03:17;12.70;;;9.05;;
65045;SDS011;54657;52.022;5.534;2024-02-28T06:05:43;15.20;;;10.13;;
65045;SDS011;54657;52.022;5.534;2024-02-28T06:08:08;13.60;;;9.75;;
65045;SDS011;54657;52.022;5.534;2024-02-28T06:10:34;12.60;;;9.13;;
65045;SDS011;54657;52.022;5.534;2024-02-28T06:12:59;14.25;;;9.57;;
65045;SDS011;54657;52.022;5.534;2024-02-28T06:15:25;12.20;;;9.45;;
65045;SDS011;54657;52.022;5.534;2024-02-28T06:17:51;14.93;;;9.65;;
65045;SDS011;54657;52.022;5.534;2024-02-28T06:20:16;12.63;;;9.60;;
65045;SDS011;54657;52.022;5.534;2024-02-28T06:22:42;12.30;;;8.80;;
65045;SDS011;54657;52.022;5.534;2024-02-28T06:25:08;12.32;;;9.32;;
65045;SDS011;54657;52.022;5.534;2024-02-28T06:27:42;15.68;;;9.02;;
65045;SDS011;54657;52.022;5.534;2024-02-28T06:30:08;13.35;;;9.43;;
65045;SDS011;54657;52.022;5.534;2024-02-28T06:32:34;17.10;;;9.80;;
65045;SDS011;54657;52.022;5.534;2024-02-28T06:34:59;15.13;;;10.25;;
65045;SDS011;54657;52.022;5.534;2024-02-28T06:37:25;12.27;;;9.38;;
65045;SDS011;54657;52.022;5.534;2024-02-28T06:39:50;11.48;;;9.25;;
65045;SDS011;54657;52.022;5.534;2024-02-28T06:42:16;13.93;;;9.38;;
65045;SDS011;54657;52.022;5.534;2024-02-28T06:44:41;15.98;;;9.90;;
65045;SDS011;54657;52.022;5.534;2024-02-28T06:47:07;12.88;;;9.38;;
65045;SDS011;54657;52.022;5.534;2024-02-28T06:49:34;13.55;;;10.10;;
65045;SDS011;54657;52.022;5.534;2024-02-28T06:51:59;12.30;;;9.07;;
65045;SDS011;54657;52.022;5.534;2024-02-28T06:54:26;14.05;;;10.15;;
65045;SDS011;54657;52.022;5.534;2024-02-28T06:56:52;15.73;;;10.50;;
65045;SDS011;54657;52.022;5.534;2024-02-28T06:59:18;11.55;;;10.25;;
65045;SDS011;54657;52.022;5.534;2024-02-28T07:01:43;13.15;;;10.10;;
65045;SDS011;54657;52.022;5.534;2024-02-28T07:04:09;14.63;;;9.75;;
65045;SDS011;54657;52.022;5.534;2024-02-28T07:06:34;14.48;;;10.30;;
65045;SDS011;54657;52.022;5.534;2024-02-28T07:09:00;13.70;;;10.10;;
65045;SDS011;54657;52.022;5.534;2024-02-28T07:11:25;16.90;;;10.13;;
65045;SDS011;54657;52.022;5.534;2024-02-28T07:13:51;14.82;;;10.48;;
65045;SDS011;54657;52.022;5.534;2024-02-28T07:16:16;13.70;;;10.43;;
65045;SDS011;54657;52.022;5.534;2024-02-28T07:18:42;13.65;;;10.27;;
65045;SDS011;54657;52.022;5.534;2024-02-28T07:21:07;12.27;;;9.82;;
65045;SDS011;54657;52.022;5.534;2024-02-28T07:23:33;13.10;;;10.70;;
65045;SDS011;54657;52.022;5.534;2024-02-28T07:25:59;20.77;;;11.73;;
65045;SDS011;54657;52.022;5.534;2024-02-28T07:28:24;14.57;;;10.82;;
65045;SDS011;54657;52.022;5.534;2024-02-28T07:30:50;13.38;;;11.15;;
65045;SDS011;54657;52.022;5.534;2024-02-28T07:33:15;14.18;;;10.35;;
65045;SDS011;54657;52.022;5.534;2024-02-28T07:35:44;13.20;;;11.27;;
65045;SDS011;54657;52.022;5.534;2024-02-28T07:38:13;17.27;;;11.15;;
65045;SDS011;54657;52.022;5.534;2024-02-28T07:40:39;15.73;;;11.35;;
65045;SDS011;54657;52.022;5.534;2024-02-28T07:43:04;14.48;;;11.40;;
65045;SDS011;54657;52.022;5.534;2024-02-28T07:45:30;14.18;;;10.85;;
65045;SDS011;54657;52.022;5.534;2024-02-28T07:47:55;15.73;;;12.02;;
65045;SDS011;54657;52.022;5.534;2024-02-28T07:50:21;19.73;;;12.05;;
65045;SDS011;54657;52.022;5.534;2024-02-28T07:52:47;15.35;;;11.15;;
65045;SDS011;54657;52.022;5.534;2024-02-28T07:55:12;18.48;;;12.23;;
65045;SDS011;54657;52.022;5.534;2024-02-28T07:57:38;15.00;;;11.23;;
65045;SDS011;54657;52.022;5.534;2024-02-28T08:00:04;15.77;;;11.48;;
65045;SDS011;54657;52.022;5.534;2024-02-28T08:02:30;15.68;;;11.60;;
65045;SDS011;54657;52.022;5.534;2024-02-28T08:04:56;16.35;;;12.40;;
65045;SDS011;54657;52.022;5.534;2024-02-28T08:07:21;16.27;;;12.48;;
65045;SDS011;54657;52.022;5.534;2024-02-28T08:09:47;17.92;;;13.27;;
65045;SDS011;54657;52.022;5.534;2024-02-28T08:12:12;17.17;;;12.27;;
65045;SDS011;54657;52.022;5.534;2024-02-28T08:14:38;19.75;;;13.10;;
65045;SDS011;54657;52.022;5.534;2024-02-28T08:17:04;19.85;;;12.40;;
65045;SDS011;54657;52.022;5.534;2024-02-28T08:19:29;17.98;;;12.05;;
65045;SDS011;54657;52.022;5.534;2024-02-28T08:21:55;17.15;;;12.38;;
65045;SDS011;54657;52.022;5.534;2024-02-28T08:24:20;16.25;;;12.75;;
65045;SDS011;54657;52.022;5.534;2024-02-28T08:26:46;22.20;;;13.40;;
65045;SDS011;54657;52.022;5.534;2024-02-28T08:29:11;18.00;;;12.15;;
65045;SDS011;54657;52.022;5.534;2024-02-28T08:31:41;16.40;;;13.20;;
65045;SDS011;54657;52.022;5.534;2024-02-28T08:34:08;17.55;;;13.18;;
65045;SDS011;54657;52.022;5.534;2024-02-28T08:36:33;17.65;;;13.02;;
65045;SDS011;54657;52.022;5.534;2024-02-28T08:39:00;18.63;;;12.75;;
65045;SDS011;54657;52.022;5.534;2024-02-28T08:41:25;19.95;;;13.32;;
65045;SDS011;54657;52.022;5.534;2024-02-28T08:43:51;17.05;;;12.38;;
65045;SDS011;54657;52.022;5.534;2024-02-28T08:46:16;17.10;;;12.70;;
65045;SDS011;54657;52.022;5.534;2024-02-28T08:48:42;21.95;;;13.32;;
65045;SDS011;54657;52.022;5.534;2024-02-28T08:51:08;20.40;;;11.98;;
65045;SDS011;54657;52.022;5.534;2024-02-28T08:53:33;19.42;;;13.90;;
65045;SDS011;54657;52.022;5.534;2024-02-28T08:56:01;22.00;;;14.13;;
65045;SDS011;54657;52.022;5.534;2024-02-28T08:58:26;19.67;;;13.38;;
65045;SDS011;54657;52.022;5.534;2024-02-28T09:00:54;20.88;;;13.65;;
65045;SDS011;54657;52.022;5.534;2024-02-28T09:03:19;20.73;;;13.57;;
65045;SDS011;54657;52.022;5.534;2024-02-28T09:05:47;18.13;;;13.95;;
65045;SDS011;54657;52.022;5.534;2024-02-28T09:08:13;20.35;;;14.07;;
65045;SDS011;54657;52.022;5.534;2024-02-28T09:10:38;20.67;;;13.25;;
65045;SDS011;54657;52.022;5.534;2024-02-28T09:13:04;19.45;;;13.65;;
65045;SDS011;54657;52.022;5.534;2024-02-28T09:15:31;18.77;;;13.27;;
65045;SDS011;54657;52.022;5.534;2024-02-28T09:17:57;23.40;;;15.57;;
65045;SDS011;54657;52.022;5.534;2024-02-28T09:20:23;19.67;;;14.10;;
65045;SDS011;54657;52.022;5.534;2024-02-28T09:22:48;23.63;;;15.02;;
65045;SDS011;54657;52.022;5.534;2024-02-28T09:25:14;21.45;;;14.98;;
65045;SDS011;54657;52.022;5.534;2024-02-28T09:27:41;21.75;;;14.73;;
65045;SDS011;54657;52.022;5.534;2024-02-28T09:30:06;21.83;;;15.30;;
65045;SDS011;54657;52.022;5.534;2024-02-28T09:32:32;22.25;;;14.52;;
65045;SDS011;54657;52.022;5.534;2024-02-28T09:34:58;23.30;;;14.48;;
65045;SDS011;54657;52.022;5.534;2024-02-28T09:37:23;21.48;;;14.95;;
65045;SDS011;54657;52.022;5.534;2024-02-28T09:39:50;21.00;;;14.30;;
65045;SDS011;54657;52.022;5.534;2024-02-28T09:42:15;20.95;;;14.90;;
65045;SDS011;54657;52.022;5.534;2024-02-28T09:44:41;23.48;;;16.10;;
65045;SDS011;54657;52.022;5.534;2024-02-28T09:47:08;22.08;;;16.10;;
65045;SDS011;54657;52.022;5.534;2024-02-28T09:49:33;23.13;;;15.18;;
65045;SDS011;54657;52.022;5.534;2024-02-28T09:52:01;24.50;;;16.95;;
65045;SDS011;54657;52.022;5.534;2024-02-28T09:54:28;24.27;;;16.25;;
65045;SDS011;54657;52.022;5.534;2024-02-28T09:56:54;21.17;;;15.88;;
65045;SDS011;54657;52.022;5.534;2024-02-28T09:59:20;21.02;;;15.13;;
65045;SDS011;54657;52.022;5.534;2024-02-28T10:01:58;23.02;;;15.02;;
65045;SDS011;54657;52.022;5.534;2024-02-28T10:04:26;22.40;;;15.02;;
65045;SDS011;54657;52.022;5.534;2024-02-28T10:06:55;22.75;;;15.50;;
65045;SDS011;54657;52.022;5.534;2024-02-28T10:09:21;24.75;;;15.90;;
65045;SDS011;54657;52.022;5.534;2024-02-28T10:11:47;23.58;;;15.65;;
65045;SDS011;54657;52.022;5.534;2024-02-28T10:14:16;21.15;;;15.30;;
65045;SDS011;54657;52.022;5.534;2024-02-28T10:16:42;25.00;;;16.33;;
65045;SDS011;54657;52.022;5.534;2024-02-28T10:19:08;24.70;;;16.50;;
65045;SDS011;54657;52.022;5.534;2024-02-28T10:21:33;22.52;;;15.88;;
65045;SDS011;54657;52.022;5.534;2024-02-28T10:23:59;20.77;;;15.32;;
65045;SDS011;54657;52.022;5.534;2024-02-28T10:26:24;24.35;;;16.15;;
65045;SDS011;54657;52.022;5.534;2024-02-28T10:28:50;24.65;;;17.00;;
65045;SDS011;54657;52.022;5.534;2024-02-28T10:31:16;28.08;;;17.08;;
65045;SDS011;54657;52.022;5.534;2024-02-28T10:33:42;23.98;;;16.55;;
65045;SDS011;54657;52.022;5.534;2024-02-28T10:36:07;25.73;;;17.02;;
65045;SDS011;54657;52.022;5.534;2024-02-28T10:38:34;27.73;;;16.63;;
65045;SDS011;54657;52.022;5.534;2024-02-28T10:41:01;22.55;;;16.83;;
65045;SDS011;54657;52.022;5.534;2024-02-28T10:43:30;25.83;;;16.20;;
65045;SDS011;54657;52.022;5.534;2024-02-28T10:45:59;27.80;;;16.45;;
65045;SDS011;54657;52.022;5.534;2024-02-28T10:48:26;24.23;;;16.30;;
65045;SDS011;54657;52.022;5.534;2024-02-28T10:50:52;27.75;;;16.25;;
65045;SDS011;54657;52.022;5.534;2024-02-28T10:53:22;22.98;;;16.90;;
65045;SDS011;54657;52.022;5.534;2024-02-28T10:55:55;22.83;;;15.43;;
65045;SDS011;54657;52.022;5.534;2024-02-28T10:58:25;23.00;;;16.00;;
65045;SDS011;54657;52.022;5.534;2024-02-28T11:00:58;27.20;;;16.30;;
65045;SDS011;54657;52.022;5.534;2024-02-28T11:03:24;24.27;;;15.80;;
65045;SDS011;54657;52.022;5.534;2024-02-28T11:05:49;30.02;;;16.17;;
65045;SDS011;54657;52.022;5.534;2024-02-28T11:08:22;25.52;;;16.30;;
65045;SDS011;54657;52.022;5.534;2024-02-28T11:10:58;26.88;;;16.20;;
65045;SDS011;54657;52.022;5.534;2024-02-28T11:13:30;23.70;;;16.10;;
65045;SDS011;54657;52.022;5.534;2024-02-28T11:16:06;27.63;;;16.65;;
65045;SDS011;54657;52.022;5.534;2024-02-28T11:18:33;29.63;;;17.63;;
65045;SDS011;54657;52.022;5.534;2024-02-28T11:20:58;25.02;;;16.98;;
65045;SDS011;54657;52.022;5.534;2024-02-28T11:23:24;26.17;;;16.80;;
65045;SDS011;54657;52.022;5.534;2024-02-28T11:25:49;26.50;;;16.27;;
65045;SDS011;54657;52.022;5.534;2024-02-28T11:28:15;22.98;;;15.85;;
65045;SDS011;54657;52.022;5.534;2024-02-28T11:30:41;28.38;;;17.45;;
65045;SDS011;54657;52.022;5.534;2024-02-28T11:33:07;30.63;;;16.85;;
65045;SDS011;54657;52.022;5.534;2024-02-28T11:35:34;27.02;;;16.25;;
65045;SDS011;54657;52.022;5.534;2024-02-28T11:38:00;30.27;;;15.95;;
65045;SDS011;54657;52.022;5.534;2024-02-28T11:40:26;29.20;;;16.35;;
65045;SDS011;54657;52.022;5.534;2024-02-28T11:42:52;29.40;;;17.00;;
65045;SDS011;54657;52.022;5.534;2024-02-28T11:45:19;27.27;;;16.65;;
65045;SDS011;54657;52.022;5.534;2024-02-28T11:47:44;26.80;;;16.02;;
65045;SDS011;54657;52.022;5.534;2024-02-28T11:50:10;26.58;;;16.85;;
65045;SDS011;54657;52.022;5.534;2024-02-28T11:52:36;26.75;;;16.63;;
65045;SDS011;54657;52.022;5.534;2024-02-28T11:55:02;24.08;;;15.95;;
65045;SDS011;54657;52.022;5.534;2024-02-28T11:57:28;26.95;;;16.58;;
65045;SDS011;54657;52.022;5.534;2024-02-28T11:59:56;27.00;;;17.15;;
65045;SDS011;54657;52.022;5.534;2024-02-28T12:02:22;28.80;;;16.25;;
65045;SDS011;54657;52.022;5.534;2024-02-28T12:04:50;30.05;;;16.55;;
65045;SDS011;54657;52.022;5.534;2024-02-28T12:07:17;23.33;;;15.77;;
65045;SDS011;54657;52.022;5.534;2024-02-28T12:09:43;24.75;;;15.57;;
65045;SDS011;54657;52.022;5.534;2024-02-28T12:12:09;28.90;;;16.40;;
65045;SDS011;54657;52.022;5.534;2024-02-28T12:14:37;28.38;;;16.05;;
65045;SDS011;54657;52.022;5.534;2024-02-28T12:17:08;28.88;;;17.17;;
65045;SDS011;54657;52.022;5.534;2024-02-28T12:19:35;25.35;;;16.25;;
65045;SDS011;54657;52.022;5.534;2024-02-28T12:22:00;28.25;;;15.23;;
65045;SDS011;54657;52.022;5.534;2024-02-28T12:24:26;24.35;;;14.32;;
65045;SDS011;54657;52.022;5.534;2024-02-28T12:26:51;22.48;;;14.10;;
65045;SDS011;54657;52.022;5.534;2024-02-28T12:29:17;23.98;;;14.25;;
65045;SDS011;54657;52.022;5.534;2024-02-28T12:31:43;29.27;;;15.80;;
65045;SDS011;54657;52.022;5.534;2024-02-28T12:34:08;22.88;;;15.18;;
65045;SDS011;54657;52.022;5.534;2024-02-28T12:36:34;24.27;;;15.88;;
65045;SDS011;54657;52.022;5.534;2024-02-28T12:39:00;26.60;;;17.13;;
65045;SDS011;54657;52.022;5.534;2024-02-28T12:41:28;26.10;;;16.10;;
65045;SDS011;54657;52.022;5.534;2024-02-28T12:43:54;26.23;;;16.88;;
65045;SDS011;54657;52.022;5.534;2024-02-28T12:46:19;24.15;;;15.55;;
65045;SDS011;54657;52.022;5.534;2024-02-28T12:48:45;29.33;;;17.65;;
65045;SDS011;54657;52.022;5.534;2024-02-28T12:51:20;30.60;;;18.58;;
65045;SDS011;54657;52.022;5.534;2024-02-28T12:54:00;30.50;;;18.98;;
65045;SDS011;54657;52.022;5.534;2024-02-28T12:56:26;27.67;;;17.10;;
65045;SDS011;54657;52.022;5.534;2024-02-28T12:58:52;23.92;;;16.08;;
65045;SDS011;54657;52.022;5.534;2024-02-28T13:01:17;23.02;;;15.70;;
65045;SDS011;54657;52.022;5.534;2024-02-28T13:03:43;30.35;;;16.30;;
65045;SDS011;54657;52.022;5.534;2024-02-28T13:06:08;26.48;;;16.25;;
65045;SDS011;54657;52.022;5.534;2024-02-28T13:08:34;24.17;;;15.77;;
65045;SDS011;54657;52.022;5.534;2024-02-28T13:10:59;22.85;;;15.13;;
65045;SDS011;54657;52.022;5.534;2024-02-28T13:13:25;20.00;;;14.10;;
65045;SDS011;54657;52.022;5.534;2024-02-28T13:15:51;17.48;;;12.18;;
65045;SDS011;54657;52.022;5.534;2024-02-28T13:18:17;21.45;;;12.82;;
65045;SDS011;54657;52.022;5.534;2024-02-28T13:20:44;20.60;;;12.50;;
65045;SDS011;54657;52.022;5.534;2024-02-28T13:23:09;22.05;;;14.27;;
65045;SDS011;54657;52.022;5.534;2024-02-28T13:25:35;20.92;;;14.10;;
65045;SDS011;54657;52.022;5.534;2024-02-28T13:28:00;27.85;;;18.75;;
65045;SDS011;54657;52.022;5.534;2024-02-28T13:30:26;22.63;;;13.07;;
65045;SDS011;54657;52.022;5.534;2024-02-28T13:32:51;18.85;;;14.48;;
65045;SDS011;54657;52.022;5.534;2024-02-28T13:35:17;22.23;;;13.60;;
65045;SDS011;54657;52.022;5.534;2024-02-28T13:37:42;19.73;;;12.20;;
65045;SDS011;54657;52.022;5.534;2024-02-28T13:40:08;18.13;;;12.13;;
65045;SDS011;54657;52.022;5.534;2024-02-28T13:42:36;17.40;;;11.20;;
65045;SDS011;54657;52.022;5.534;2024-02-28T13:45:03;17.65;;;11.10;;
65045;SDS011;54657;52.022;5.534;2024-02-28T13:47:32;20.42;;;11.60;;
65045;SDS011;54657;52.022;5.534;2024-02-28T13:49:58;18.67;;;11.50;;
65045;SDS011;54657;52.022;5.534;2024-02-28T13:52:24;15.80;;;11.30;;
65045;SDS011;54657;52.022;5.534;2024-02-28T13:54:49;15.30;;;10.95;;
65045;SDS011;54657;52.022;5.534;2024-02-28T13:57:17;14.63;;;11.40;;
65045;SDS011;54657;52.022;5.534;2024-02-28T13:59:42;14.88;;;10.60;;
65045;SDS011;54657;52.022;5.534;2024-02-28T14:02:08;16.75;;;11.35;;
65045;SDS011;54657;52.022;5.534;2024-02-28T14:04:35;14.63;;;10.73;;
65045;SDS011;54657;52.022;5.534;2024-02-28T14:07:02;13.68;;;10.20;;
65045;SDS011;54657;52.022;5.534;2024-02-28T14:09:28;14.05;;;10.10;;
65045;SDS011;54657;52.022;5.534;2024-02-28T14:11:53;18.52;;;9.75;;
65045;SDS011;54657;52.022;5.534;2024-02-28T14:14:19;17.58;;;10.45;;
65045;SDS011;54657;52.022;5.534;2024-02-28T14:16:45;12.00;;;9.13;;
65045;SDS011;54657;52.022;5.534;2024-02-28T14:19:10;13.27;;;10.70;;
65045;SDS011;54657;52.022;5.534;2024-02-28T14:21:36;12.30;;;9.45;;
65045;SDS011;54657;52.022;5.534;2024-02-28T14:24:01;15.90;;;10.45;;
65045;SDS011;54657;52.022;5.534;2024-02-28T14:26:27;13.35;;;9.98;;
65045;SDS011;54657;52.022;5.534;2024-02-28T14:28:52;13.32;;;10.05;;
65045;SDS011;54657;52.022;5.534;2024-02-28T14:31:20;12.68;;;9.35;;
65045;SDS011;54657;52.022;5.534;2024-02-28T14:33:46;12.20;;;9.25;;
65045;SDS011;54657;52.022;5.534;2024-02-28T14:36:12;12.30;;;9.45;;
65045;SDS011;54657;52.022;5.534;2024-02-28T14:38:39;10.90;;;8.68;;
65045;SDS011;54657;52.022;5.534;2024-02-28T14:41:04;10.75;;;8.90;;
65045;SDS011;54657;52.022;5.534;2024-02-28T14:43:32;12.23;;;9.23;;
65045;SDS011;54657;52.022;5.534;2024-02-28T14:45:57;12.32;;;9.35;;
65045;SDS011;54657;52.022;5.534;2024-02-28T14:48:23;14.07;;;9.30;;
65045;SDS011;54657;52.022;5.534;2024-02-28T14:50:48;13.20;;;10.05;;